createdAt,value
2018-06-23T00:00:01.145Z,15.20
2018-06-23T00:00:37.929Z,15.20
2018-06-23T00:01:11.345Z,15.20
2018-06-23T00:01:44.749Z,15.20
2018-06-23T00:02:18.253Z,15.20
2018-06-23T00:02:51.736Z,15.10
2018-06-23T00:03:25.272Z,15.10
2018-06-23T00:03:58.742Z,15.10
2018-06-23T00:04:32.163Z,15.20
2018-06-23T00:05:06.042Z,15.20
2018-06-23T00:05:39.492Z,15.10
2018-06-23T00:06:13.031Z,15.10
2018-06-23T00:06:46.432Z,15.10
2018-06-23T00:07:19.867Z,15.10
2018-06-23T00:07:53.276Z,15.10
2018-06-23T00:08:26.757Z,15.10
2018-06-23T00:09:33.715Z,15.10
2018-06-23T00:10:40.379Z,15.10
2018-06-23T00:11:47.753Z,15.10
2018-06-23T00:12:21.244Z,15.10
2018-06-23T00:12:54.687Z,15.10
2018-06-23T00:13:28.097Z,15.10
2018-06-23T00:14:01.530Z,15.10
2018-06-23T00:14:34.943Z,15.10
2018-06-23T00:15:08.452Z,15.10
2018-06-23T00:15:41.884Z,15.10
2018-06-23T00:16:15.448Z,15.10
2018-06-23T00:16:48.819Z,15.00
2018-06-23T00:17:22.188Z,15.00
2018-06-23T00:17:55.573Z,15.00
2018-06-23T00:18:35.725Z,15.00
2018-06-23T00:19:09.148Z,15.00
2018-06-23T00:19:42.554Z,15.00
2018-06-23T00:20:15.973Z,15.00
2018-06-23T00:20:49.398Z,15.00
2018-06-23T00:21:22.853Z,14.90
2018-06-23T00:21:56.286Z,15.00
2018-06-23T00:22:30.122Z,15.00
2018-06-23T00:23:03.516Z,14.90
2018-06-23T00:24:10.020Z,14.90
2018-06-23T00:24:43.638Z,14.90
2018-06-23T00:25:22.404Z,14.90
2018-06-23T00:26:01.057Z,14.90
2018-06-23T00:26:34.425Z,14.90
2018-06-23T00:27:07.819Z,14.90
2018-06-23T00:27:41.228Z,14.90
2018-06-23T00:28:14.953Z,14.80
2018-06-23T00:28:48.306Z,14.80
2018-06-23T00:29:21.703Z,14.80
2018-06-23T00:30:28.173Z,14.80
2018-06-23T00:31:01.585Z,14.80
2018-06-23T00:31:35.017Z,14.80
2018-06-23T00:32:09.021Z,14.80
2018-06-23T00:32:42.544Z,14.80
2018-06-23T00:33:15.997Z,14.80
2018-06-23T00:33:49.407Z,14.80
2018-06-23T00:34:22.831Z,14.70
2018-06-23T00:34:56.251Z,14.80
2018-06-23T00:36:02.801Z,14.70
2018-06-23T00:36:36.279Z,14.70
2018-06-23T00:37:09.657Z,14.70
2018-06-23T00:37:43.045Z,14.70
2018-06-23T00:38:16.495Z,14.70
2018-06-23T00:38:50.226Z,14.70
2018-06-23T00:39:23.609Z,14.70
2018-06-23T00:39:56.961Z,14.70
2018-06-23T00:40:30.362Z,14.70
2018-06-23T00:41:03.892Z,14.60
2018-06-23T01:30:28.466Z,14.30
2018-06-23T01:31:01.862Z,14.30
2018-06-23T01:31:35.446Z,14.30
2018-06-23T01:32:09.152Z,14.30
2018-06-23T01:32:42.709Z,14.30
2018-06-23T01:33:16.471Z,14.40
2018-06-23T01:33:49.911Z,14.40
2018-06-23T01:34:23.313Z,14.40
2018-06-23T01:34:57.659Z,14.30
2018-06-23T01:35:33.046Z,14.40
2018-06-23T01:36:07.876Z,14.30
2018-06-23T01:36:43.998Z,14.30
2018-06-23T01:37:18.319Z,14.30
2018-06-23T01:37:52.787Z,14.30
2018-06-23T01:38:26.748Z,14.30
2018-06-23T01:39:00.677Z,14.30
2018-06-23T01:39:34.044Z,14.30
2018-06-23T01:40:07.423Z,14.30
2018-06-23T01:40:40.959Z,14.30
2018-06-23T01:41:15.438Z,14.30
2018-06-23T01:41:48.787Z,14.30
2018-06-23T01:42:22.118Z,14.30
2018-06-23T01:42:55.541Z,14.30
2018-06-23T01:43:28.904Z,14.30
2018-06-23T01:44:02.727Z,14.30
2018-06-23T01:44:36.117Z,14.30
2018-06-23T01:45:09.526Z,14.30
2018-06-23T01:45:42.919Z,14.30
2018-06-23T01:46:16.293Z,14.30
2018-06-23T01:46:49.658Z,14.20
2018-06-23T01:47:23.080Z,14.30
2018-06-23T01:47:56.611Z,14.20
2018-06-23T01:48:30.030Z,14.30
2018-06-23T01:49:03.791Z,14.30
2018-06-23T01:49:37.141Z,14.30
2018-06-23T01:50:10.563Z,14.30
2018-06-23T01:50:43.950Z,14.30
2018-06-23T01:51:17.841Z,14.30
2018-06-23T01:51:51.248Z,14.20
2018-06-23T01:52:24.846Z,14.20
2018-06-23T01:52:58.216Z,14.20
2018-06-23T01:53:31.598Z,14.20
2018-06-23T01:54:05.393Z,14.20
2018-06-23T01:54:39.092Z,14.20
2018-06-23T01:55:12.469Z,14.20
2018-06-23T01:55:45.863Z,14.20
2018-06-23T01:56:19.330Z,14.20
2018-06-23T01:56:52.690Z,14.20
2018-06-23T01:57:26.065Z,14.20
2018-06-23T01:57:59.419Z,14.10
2018-06-23T01:58:32.792Z,14.10
2018-06-23T01:59:06.195Z,14.20
2018-06-23T01:59:39.573Z,14.20
2018-06-23T02:00:13.287Z,14.10
2018-06-23T02:00:46.706Z,14.10
2018-06-23T02:01:20.267Z,14.10
2018-06-23T02:01:53.640Z,14.10
2018-06-23T02:02:26.997Z,14.10
2018-06-23T02:03:00.378Z,14.10
2018-06-23T02:03:33.974Z,14.20
2018-06-23T02:04:07.375Z,14.20
2018-06-23T02:04:40.768Z,14.20
2018-06-23T02:05:14.645Z,14.20
2018-06-23T02:05:48.076Z,14.20
2018-06-23T02:06:21.455Z,14.20
2018-06-23T02:07:28.120Z,14.20
2018-06-23T02:08:01.497Z,14.20
2018-06-23T02:08:34.877Z,14.20
2018-06-23T02:09:09.840Z,14.20
2018-06-23T02:09:43.828Z,14.10
2018-06-23T02:10:17.286Z,14.10
2018-06-23T02:10:50.667Z,14.10
2018-06-23T02:11:24.265Z,14.10
2018-06-23T02:11:58.012Z,14.10
2018-06-23T02:12:31.557Z,14.10
2018-06-23T02:13:05.179Z,14.10
2018-06-23T02:13:38.615Z,14.10
2018-06-23T02:14:19.277Z,14.10
2018-06-23T02:14:58.551Z,14.10
2018-06-23T02:15:37.322Z,14.10
2018-06-23T02:16:16.023Z,14.10
2018-06-23T02:16:54.655Z,14.20
2018-06-23T02:17:33.311Z,14.10
2018-06-23T02:20:18.557Z,14.10
2018-06-23T02:20:57.359Z,14.10
2018-06-23T02:23:42.619Z,14.10
2018-06-23T02:24:21.997Z,14.10
2018-06-23T02:25:01.049Z,14.00
2018-06-23T02:25:39.875Z,14.00
2018-06-23T02:26:18.660Z,14.00
2018-06-23T02:26:57.472Z,14.00
2018-06-23T02:27:36.244Z,14.00
2018-06-23T02:28:14.845Z,14.00
2018-06-23T02:28:53.649Z,14.00
2018-06-23T02:29:32.281Z,14.00
2018-06-23T02:30:11.053Z,14.00
2018-06-23T02:30:49.712Z,14.00
2018-06-23T02:31:28.282Z,14.00
2018-06-23T02:32:06.896Z,14.00
2018-06-23T02:32:44.707Z,13.90
2018-06-23T02:33:23.440Z,13.90
2018-06-23T02:34:02.248Z,13.90
2018-06-23T02:34:41.132Z,13.90
2018-06-23T02:35:14.537Z,13.90
2018-06-23T02:35:48.122Z,13.90
2018-06-23T02:36:21.457Z,13.90
2018-06-23T02:36:54.825Z,13.90
2018-06-23T02:37:28.539Z,13.90
2018-06-23T02:38:01.943Z,13.90
2018-06-23T02:38:35.324Z,13.90
2018-06-23T02:39:42.976Z,13.90
2018-06-23T02:40:16.579Z,13.90
2018-06-23T02:40:50.050Z,13.90
2018-06-23T02:41:27.708Z,13.90
2018-06-23T02:42:01.293Z,13.90
2018-06-23T02:42:35.832Z,13.90
2018-06-23T02:43:09.482Z,13.90
2018-06-23T02:43:42.869Z,13.90
2018-06-23T02:44:16.252Z,13.90
2018-06-23T02:44:49.732Z,13.90
2018-06-23T02:45:23.060Z,13.90
2018-06-23T02:45:57.008Z,13.90
2018-06-23T02:46:30.876Z,13.90
2018-06-23T02:47:37.735Z,14.00
2018-06-23T02:48:11.263Z,14.00
2018-06-23T02:48:44.852Z,14.00
2018-06-23T02:49:18.925Z,14.00
2018-06-23T02:50:27.785Z,14.00
2018-06-23T02:51:01.418Z,14.00
2018-06-23T02:51:34.805Z,13.90
2018-06-23T02:52:08.400Z,13.90
2018-06-23T02:52:41.791Z,13.90
2018-06-23T02:53:15.167Z,13.90
2018-06-23T02:53:48.848Z,13.90
2018-06-23T02:54:22.267Z,13.90
2018-06-23T02:54:55.692Z,13.90
2018-06-23T02:55:29.082Z,13.90
2018-06-23T02:56:02.456Z,13.90
2018-06-23T02:56:35.843Z,13.90
2018-06-23T02:57:09.454Z,13.90
2018-06-23T02:57:42.849Z,13.90
2018-06-23T02:58:16.198Z,13.90
2018-06-23T02:58:49.921Z,13.90
2018-06-23T02:59:23.294Z,13.90
2018-06-23T02:59:56.700Z,13.90
2018-06-23T03:00:30.106Z,13.90
2018-06-23T03:01:03.516Z,13.90
2018-06-23T03:01:37.004Z,14.00
2018-06-23T03:02:10.392Z,14.00
2018-06-23T03:02:44.594Z,14.00
2018-06-23T03:03:18.000Z,14.00
2018-06-23T03:03:51.555Z,13.90
2018-06-23T03:04:24.999Z,13.90
2018-06-23T03:04:58.392Z,13.90
2018-06-23T03:05:31.780Z,13.90
2018-06-23T03:06:05.504Z,13.90
2018-06-23T03:06:39.029Z,13.90
2018-06-23T03:07:12.404Z,13.90
2018-06-23T03:07:48.561Z,13.90
2018-06-23T03:08:21.940Z,13.90
2018-06-23T03:08:55.315Z,13.90
2018-06-23T03:09:28.704Z,13.90
2018-06-23T03:10:02.098Z,13.90
2018-06-23T03:10:36.007Z,13.90
2018-06-23T03:11:09.552Z,13.90
2018-06-23T03:11:42.952Z,13.90
2018-06-23T03:12:49.812Z,13.90
2018-06-23T03:13:23.222Z,13.90
2018-06-23T03:13:56.617Z,13.90
2018-06-23T03:14:30.201Z,13.90
2018-06-23T03:15:03.627Z,13.90
2018-06-23T03:15:37.642Z,13.90
2018-06-23T03:16:11.355Z,13.90
2018-06-23T03:16:44.748Z,13.90
2018-06-23T03:17:19.127Z,13.90
2018-06-23T03:17:52.716Z,13.90
2018-06-23T03:18:26.205Z,13.90
2018-06-23T03:18:59.735Z,13.90
2018-06-23T03:19:33.100Z,13.90
2018-06-23T03:20:06.706Z,13.90
2018-06-23T03:20:40.153Z,13.90
2018-06-23T03:21:13.526Z,13.90
2018-06-23T03:21:46.914Z,13.90
2018-06-23T03:22:20.369Z,13.90
2018-06-23T03:22:53.739Z,13.90
2018-06-23T03:23:27.119Z,13.90
2018-06-23T03:24:00.696Z,13.90
2018-06-23T03:24:34.262Z,13.90
2018-06-23T03:25:07.656Z,13.90
2018-06-23T03:25:41.212Z,13.90
2018-06-23T03:26:14.647Z,13.90
2018-06-23T03:26:48.030Z,13.90
2018-06-23T03:27:21.433Z,13.90
2018-06-23T03:27:54.854Z,13.90
2018-06-23T03:28:28.273Z,13.90
2018-06-23T03:29:01.626Z,13.90
2018-06-23T03:29:35.089Z,13.90
2018-06-23T03:30:08.490Z,13.80
2018-06-23T03:30:41.889Z,13.80
2018-06-23T03:31:15.307Z,13.80
2018-06-23T03:31:48.685Z,13.80
2018-06-23T03:32:22.058Z,13.90
2018-06-23T03:32:55.430Z,13.90
2018-06-23T03:33:29.105Z,13.80
2018-06-23T03:34:02.496Z,13.90
2018-06-23T03:34:36.006Z,13.90
2018-06-23T03:35:09.406Z,13.90
2018-06-23T03:35:43.003Z,13.90
2018-06-23T03:36:16.419Z,13.90
2018-06-23T03:36:49.809Z,13.90
2018-06-23T03:37:23.236Z,13.90
2018-06-23T03:37:56.666Z,13.90
2018-06-23T03:38:30.026Z,13.90
2018-06-23T03:39:03.765Z,13.80
2018-06-23T03:39:37.462Z,13.80
2018-06-23T03:40:10.852Z,13.90
2018-06-23T03:40:44.241Z,13.90
2018-06-23T03:41:17.638Z,13.90
2018-06-23T03:41:51.340Z,13.90
2018-06-23T03:42:24.716Z,13.90
2018-06-23T03:42:58.317Z,13.90
2018-06-23T03:43:31.803Z,13.90
2018-06-23T03:44:05.254Z,13.90
2018-06-23T03:44:38.639Z,13.90
2018-06-23T03:45:12.100Z,13.90
2018-06-23T03:45:47.199Z,13.90
2018-06-23T03:46:20.579Z,13.90
2018-06-23T03:46:53.989Z,13.90
2018-06-23T03:47:27.440Z,13.90
2018-06-23T03:48:00.903Z,13.90
2018-06-23T03:48:34.263Z,13.90
2018-06-23T03:49:07.607Z,13.90
2018-06-23T03:49:40.991Z,13.90
2018-06-23T03:50:14.374Z,13.90
2018-06-23T03:50:47.754Z,13.90
2018-06-23T03:51:21.176Z,13.90
2018-06-23T03:51:54.536Z,13.90
2018-06-23T03:52:27.966Z,13.90
2018-06-23T03:53:01.365Z,13.90
2018-06-23T03:53:34.924Z,13.80
2018-06-23T03:54:08.318Z,13.90
2018-06-23T03:54:41.744Z,13.90
2018-06-23T03:55:15.115Z,13.90
2018-06-23T03:55:48.515Z,13.90
2018-06-23T03:56:22.294Z,13.90
2018-06-23T03:56:55.707Z,13.90
2018-06-23T03:57:29.327Z,13.90
2018-06-23T03:58:02.705Z,13.90
2018-06-23T03:58:36.108Z,13.90
2018-06-23T03:59:09.493Z,13.90
2018-06-23T03:59:43.573Z,13.90
2018-06-23T04:00:16.937Z,13.90
2018-06-23T04:00:55.785Z,13.90
2018-06-23T04:01:29.182Z,13.90
2018-06-23T04:02:03.232Z,13.90
2018-06-23T04:02:36.595Z,13.90
2018-06-23T04:03:43.437Z,13.90
2018-06-23T04:04:17.263Z,13.90
2018-06-23T04:04:50.859Z,13.90
2018-06-23T04:05:57.331Z,13.90
2018-06-23T04:06:30.706Z,13.90
2018-06-23T04:07:04.126Z,13.90
2018-06-23T04:07:37.514Z,13.90
2018-06-23T04:08:10.886Z,13.80
2018-06-23T04:08:44.239Z,13.80
2018-06-23T04:09:17.732Z,13.80
2018-06-23T04:09:51.570Z,13.80
2018-06-23T04:10:24.918Z,13.80
2018-06-23T04:10:58.448Z,13.90
2018-06-23T04:11:32.451Z,13.90
2018-06-23T04:12:06.021Z,13.90
2018-06-23T04:12:39.397Z,13.90
2018-06-23T04:13:12.777Z,13.90
2018-06-23T04:13:46.151Z,13.90
2018-06-23T04:14:19.630Z,13.90
2018-06-23T04:14:53.017Z,13.90
2018-06-23T04:15:26.572Z,13.90
2018-06-23T04:16:00.150Z,13.70
2018-06-23T04:16:33.644Z,14.00
2018-06-23T04:17:07.013Z,14.00
2018-06-23T04:17:40.371Z,13.90
2018-06-23T04:18:13.792Z,13.90
2018-06-23T04:18:52.319Z,14.00
2018-06-23T04:19:25.699Z,14.00
2018-06-23T04:19:59.093Z,13.90
2018-06-23T04:20:32.636Z,13.90
2018-06-23T04:21:12.466Z,14.00
2018-06-23T04:21:45.849Z,14.00
2018-06-23T04:22:19.280Z,14.00
2018-06-23T04:22:52.617Z,14.00
2018-06-23T04:23:25.986Z,14.00
2018-06-23T04:23:59.684Z,14.00
2018-06-23T04:24:33.085Z,14.00
2018-06-23T04:25:06.463Z,14.00
2018-06-23T04:25:39.841Z,14.00
2018-06-23T04:26:13.208Z,14.00
2018-06-23T04:26:46.621Z,14.10
2018-06-23T04:27:19.988Z,14.10
2018-06-23T04:27:53.509Z,14.10
2018-06-23T04:28:26.848Z,14.10
2018-06-23T04:29:00.211Z,14.10
2018-06-23T04:29:33.679Z,14.10
2018-06-23T04:30:07.217Z,14.20
2018-06-23T04:30:40.649Z,14.20
2018-06-23T04:31:14.073Z,14.20
2018-06-23T04:31:47.441Z,14.20
2018-06-23T04:32:20.820Z,14.20
2018-06-23T04:32:54.149Z,14.20
2018-06-23T04:33:27.512Z,14.30
2018-06-23T04:34:40.768Z,14.30
2018-06-23T04:35:14.172Z,14.30
2018-06-23T04:35:47.847Z,14.30
2018-06-23T04:36:21.345Z,14.20
2018-06-23T04:36:54.764Z,14.20
2018-06-23T04:37:28.119Z,14.20
2018-06-23T04:38:01.492Z,14.20
2018-06-23T04:38:34.889Z,14.20
2018-06-23T04:39:08.511Z,14.20
2018-06-23T04:39:41.938Z,14.20
2018-06-23T04:40:15.998Z,14.20
2018-06-23T04:40:49.417Z,14.20
2018-06-23T04:41:22.985Z,14.20
2018-06-23T04:41:56.386Z,14.20
2018-06-23T04:42:30.349Z,14.20
2018-06-23T04:43:03.728Z,14.20
2018-06-23T04:43:37.827Z,14.20
2018-06-23T04:44:11.344Z,14.20
2018-06-23T04:44:44.735Z,14.20
2018-06-23T04:45:18.235Z,14.20
2018-06-23T04:45:51.791Z,14.20
2018-06-23T04:46:25.645Z,14.20
2018-06-23T04:46:59.031Z,14.20
2018-06-23T04:47:32.416Z,14.20
2018-06-23T04:48:06.017Z,14.20
2018-06-23T04:48:39.400Z,14.20
2018-06-23T04:49:12.812Z,14.20
2018-06-23T04:50:19.312Z,14.20
2018-06-23T04:50:52.761Z,14.20
2018-06-23T04:51:26.684Z,14.20
2018-06-23T04:52:00.139Z,14.20
2018-06-23T04:52:33.524Z,14.20
2018-06-23T04:53:07.108Z,14.20
2018-06-23T04:53:43.169Z,14.20
2018-06-23T04:54:16.844Z,14.20
2018-06-23T04:54:50.261Z,14.20
2018-06-23T04:55:23.829Z,14.20
2018-06-23T04:55:57.204Z,14.20
2018-06-23T04:56:30.612Z,14.20
2018-06-23T04:57:04.049Z,14.20
2018-06-23T04:57:37.709Z,14.20
2018-06-23T04:58:11.089Z,14.20
2018-06-23T04:58:44.496Z,14.20
2018-06-23T04:59:17.876Z,14.20
2018-06-23T04:59:51.406Z,14.20
2018-06-23T05:00:25.434Z,14.20
2018-06-23T05:00:58.846Z,14.20
2018-06-23T05:01:32.252Z,14.20
2018-06-23T05:02:05.659Z,14.30
2018-06-23T05:02:39.057Z,14.20
2018-06-23T05:03:12.424Z,14.20
2018-06-23T05:03:46.132Z,14.20
2018-06-23T05:04:19.491Z,14.20
2018-06-23T05:04:52.877Z,14.30
2018-06-23T05:05:59.884Z,14.30
2018-06-23T05:06:33.276Z,14.30
2018-06-23T05:07:06.727Z,14.30
2018-06-23T05:07:40.492Z,14.30
2018-06-23T05:08:13.921Z,14.30
2018-06-23T05:08:47.284Z,14.30
2018-06-23T05:09:20.636Z,14.30
2018-06-23T05:09:54.030Z,14.30
2018-06-23T05:10:27.508Z,14.30
2018-06-23T05:11:01.124Z,14.30
2018-06-23T05:11:35.743Z,14.20
2018-06-23T05:12:09.167Z,14.20
2018-06-23T05:12:42.536Z,14.30
2018-06-23T05:13:15.901Z,14.30
2018-06-23T05:13:49.315Z,14.30
2018-06-23T05:14:22.939Z,14.30
2018-06-23T05:14:56.408Z,14.30
2018-06-23T05:15:29.744Z,14.30
2018-06-23T05:16:03.508Z,14.30
2018-06-23T05:16:36.900Z,14.30
2018-06-23T05:17:10.868Z,14.30
2018-06-23T05:17:44.321Z,14.30
2018-06-23T05:18:17.684Z,14.30
2018-06-23T05:18:51.087Z,14.30
2018-06-23T05:19:24.485Z,14.30
2018-06-23T05:19:57.868Z,14.30
2018-06-23T05:20:31.280Z,14.30
2018-06-23T05:21:04.780Z,14.30
2018-06-23T05:21:38.169Z,14.30
2018-06-23T05:22:11.712Z,14.30
2018-06-23T05:22:45.875Z,14.30
2018-06-23T05:23:19.217Z,14.40
2018-06-23T05:23:53.359Z,14.30
2018-06-23T05:24:27.402Z,14.40
2018-06-23T05:25:01.046Z,14.40
2018-06-23T05:25:34.437Z,14.40
2018-06-23T05:26:08.017Z,14.40
2018-06-23T05:26:41.493Z,14.40
2018-06-23T05:27:14.844Z,14.40
2018-06-23T05:27:48.268Z,14.40
2018-06-23T05:28:21.644Z,14.40
2018-06-23T05:28:55.041Z,14.40
2018-06-23T05:29:28.444Z,14.40
2018-06-23T05:30:01.845Z,14.40
2018-06-23T05:30:35.226Z,14.40
2018-06-23T05:31:08.664Z,14.40
2018-06-23T05:31:42.076Z,14.40
2018-06-23T05:32:15.437Z,14.40
2018-06-23T05:32:48.857Z,14.40
2018-06-23T05:33:23.180Z,14.40
2018-06-23T05:33:56.557Z,14.40
2018-06-23T05:34:29.932Z,14.40
2018-06-23T05:35:03.490Z,14.40
2018-06-23T05:35:37.256Z,14.40
2018-06-23T05:36:10.756Z,14.40
2018-06-23T05:36:44.116Z,14.40
2018-06-23T05:37:17.497Z,14.40
2018-06-23T05:37:50.857Z,14.40
2018-06-23T05:38:24.636Z,14.40
2018-06-23T05:38:58.031Z,14.40
2018-06-23T05:39:31.616Z,14.50
2018-06-23T05:40:05.117Z,14.50
2018-06-23T05:40:38.528Z,14.50
2018-06-23T05:41:11.919Z,14.50
2018-06-23T05:41:45.306Z,14.50
2018-06-23T05:42:18.691Z,14.60
2018-06-23T05:42:52.202Z,14.60
2018-06-23T05:43:25.557Z,14.70
2018-06-23T05:43:59.787Z,14.70
2018-06-23T05:44:33.360Z,14.80
2018-06-23T05:45:07.096Z,14.80
2018-06-23T05:45:40.824Z,14.90
2018-06-23T05:46:14.273Z,14.90
2018-06-23T05:46:47.741Z,15.00
2018-06-23T05:47:21.691Z,15.10
2018-06-23T05:47:55.074Z,15.10
2018-06-23T05:48:28.932Z,15.20
2018-06-23T05:49:02.440Z,15.20
2018-06-23T05:49:35.803Z,15.30
2018-06-23T05:50:09.438Z,15.40
2018-06-23T05:50:42.817Z,15.40
2018-06-23T05:51:16.240Z,15.40
2018-06-23T05:51:49.580Z,15.50
2018-06-23T05:52:22.966Z,15.50
2018-06-23T05:52:56.324Z,15.50
2018-06-23T05:53:30.223Z,15.50
2018-06-23T05:54:04.101Z,15.50
2018-06-23T05:54:37.878Z,15.50
2018-06-23T05:55:11.348Z,15.50
2018-06-23T05:55:44.962Z,15.50
2018-06-23T05:56:18.359Z,15.50
2018-06-23T05:56:51.767Z,15.50
2018-06-23T05:57:25.165Z,15.50
2018-06-23T05:57:58.772Z,15.50
2018-06-23T05:58:32.193Z,15.50
2018-06-23T05:59:05.732Z,15.50
2018-06-23T05:59:39.155Z,15.50
2018-06-23T06:00:12.643Z,15.50
2018-06-23T06:00:46.086Z,15.50
2018-06-23T06:01:19.848Z,15.50
2018-06-23T06:01:53.567Z,15.50
2018-06-23T06:02:27.603Z,15.50
2018-06-23T06:03:01.333Z,15.50
2018-06-23T06:03:34.901Z,15.50
2018-06-23T06:04:08.427Z,15.40
2018-06-23T06:04:42.468Z,15.40
2018-06-23T06:05:15.865Z,15.40
2018-06-23T06:05:49.917Z,15.40
2018-06-23T06:06:23.371Z,15.40
2018-06-23T06:07:30.320Z,15.40
2018-06-23T06:08:04.016Z,15.40
2018-06-23T06:08:37.450Z,15.30
2018-06-23T06:09:11.182Z,15.30
2018-06-23T06:09:44.773Z,15.30
2018-06-23T06:10:18.291Z,15.30
2018-06-23T06:10:51.790Z,15.30
2018-06-23T06:11:25.197Z,15.30
2018-06-23T06:11:58.610Z,15.30
2018-06-23T06:12:31.961Z,15.30
2018-06-23T06:13:06.001Z,15.20
2018-06-23T06:13:39.378Z,15.20
2018-06-23T06:14:12.781Z,15.20
2018-06-23T06:14:46.195Z,15.20
2018-06-23T06:15:19.985Z,15.20
2018-06-23T06:15:53.764Z,15.20
2018-06-23T06:16:31.532Z,15.20
2018-06-23T06:17:37.883Z,15.20
2018-06-23T06:18:11.308Z,15.20
2018-06-23T06:18:44.893Z,15.20
2018-06-23T06:19:18.303Z,15.20
2018-06-23T06:19:53.685Z,15.10
2018-06-23T06:20:27.170Z,15.10
2018-06-23T06:21:00.563Z,15.10
2018-06-23T06:21:33.946Z,15.20
2018-06-23T06:22:07.279Z,15.10
2018-06-23T06:22:41.890Z,15.10
2018-06-23T06:23:15.240Z,15.10
2018-06-23T06:23:48.685Z,15.10
2018-06-23T06:24:22.001Z,15.10
2018-06-23T06:24:56.326Z,15.10
2018-06-23T06:25:29.702Z,15.10
2018-06-23T06:26:03.148Z,15.10
2018-06-23T06:26:36.508Z,15.10
2018-06-23T06:27:09.895Z,15.10
2018-06-23T06:27:43.426Z,15.10
2018-06-23T06:28:16.753Z,15.00
2018-06-23T06:28:50.088Z,15.00
2018-06-23T06:29:23.486Z,15.00
2018-06-23T06:29:57.426Z,15.00
2018-06-23T06:30:30.829Z,15.00
2018-06-23T06:31:04.232Z,15.00
2018-06-23T06:31:37.685Z,14.90
2018-06-23T06:32:11.187Z,14.90
2018-06-23T06:32:44.796Z,14.90
2018-06-23T06:33:18.282Z,14.90
2018-06-23T06:33:52.090Z,14.90
2018-06-23T06:34:25.813Z,14.90
2018-06-23T06:34:59.416Z,14.90
2018-06-23T06:35:32.837Z,14.90
2018-06-23T06:36:06.319Z,14.90
2018-06-23T06:36:39.709Z,14.90
2018-06-23T06:37:13.037Z,14.80
2018-06-23T06:37:46.475Z,14.80
2018-06-23T06:38:20.309Z,14.80
2018-06-23T06:38:54.660Z,14.80
2018-06-23T06:39:28.132Z,14.80
2018-06-23T06:40:01.543Z,14.80
2018-06-23T06:40:34.961Z,14.80
2018-06-23T06:41:08.408Z,14.70
2018-06-23T06:41:42.238Z,14.70
2018-06-23T06:42:15.990Z,14.70
2018-06-23T06:42:49.331Z,14.70
2018-06-23T06:43:22.699Z,14.60
2018-06-23T06:43:56.031Z,14.60
2018-06-23T06:44:30.212Z,14.60
2018-06-23T06:45:03.632Z,14.60
2018-06-23T08:05:32.776Z,15.40
2018-06-23T08:06:06.497Z,15.40
2018-06-23T08:07:13.054Z,15.40
2018-06-23T08:07:46.591Z,15.40
2018-06-23T08:08:19.944Z,15.40
2018-06-23T08:08:53.309Z,15.40
2018-06-23T08:09:26.699Z,15.40
2018-06-23T08:10:00.056Z,15.50
2018-06-23T08:10:33.494Z,15.50
2018-06-23T08:11:06.935Z,15.50
2018-06-23T08:11:40.348Z,15.50
2018-06-23T08:12:14.408Z,15.50
2018-06-23T08:12:47.759Z,15.50
2018-06-23T08:13:21.591Z,15.50
2018-06-23T08:13:55.010Z,15.50
2018-06-23T08:15:01.552Z,15.50
2018-06-23T08:15:34.880Z,15.50
2018-06-23T08:16:09.059Z,15.60
2018-06-23T08:16:42.452Z,15.60
2018-06-23T08:17:16.127Z,15.50
2018-06-23T08:17:49.444Z,15.50
2018-06-23T08:18:23.120Z,15.50
2018-06-23T08:18:56.517Z,15.50
2018-06-23T08:19:29.922Z,15.50
2018-06-23T08:20:03.549Z,15.50
2018-06-23T08:20:37.320Z,15.50
2018-06-23T08:21:10.721Z,15.50
2018-06-23T08:21:44.156Z,15.50
2018-06-23T08:22:17.523Z,15.60
2018-06-23T08:22:50.903Z,15.60
2018-06-23T08:23:24.247Z,15.60
2018-06-23T08:23:57.664Z,15.50
2018-06-23T08:24:31.049Z,15.60
2018-06-23T08:25:04.592Z,15.60
2018-06-23T08:25:38.379Z,15.60
2018-06-23T08:26:12.572Z,15.60
2018-06-23T08:26:46.012Z,15.60
2018-06-23T08:27:19.407Z,15.60
2018-06-23T08:27:52.796Z,15.70
2018-06-23T08:28:26.163Z,15.60
2018-06-23T08:29:01.524Z,15.60
2018-06-23T08:29:34.879Z,15.60
2018-06-23T08:30:08.465Z,15.70
2018-06-23T08:30:41.955Z,15.70
2018-06-23T08:31:15.436Z,15.70
2018-06-23T08:31:48.880Z,15.70
2018-06-23T08:32:22.280Z,15.60
2018-06-23T08:32:55.869Z,15.70
2018-06-23T08:33:29.380Z,15.70
2018-06-23T08:34:03.481Z,15.70
2018-06-23T08:34:39.862Z,15.70
2018-06-23T08:35:13.249Z,15.70
2018-06-23T08:35:46.632Z,15.70
2018-06-23T08:36:20.078Z,15.70
2018-06-23T08:36:53.615Z,15.70
2018-06-23T08:37:27.069Z,15.70
2018-06-23T08:38:00.482Z,15.70
2018-06-23T08:38:33.880Z,15.70
2018-06-23T08:39:08.033Z,15.70
2018-06-23T08:39:41.720Z,15.70
2018-06-23T08:40:15.479Z,15.70
2018-06-23T08:40:48.985Z,15.60
2018-06-23T08:41:22.631Z,15.60
2018-06-23T08:41:56.028Z,15.60
2018-06-23T08:42:29.747Z,15.60
2018-06-23T08:43:03.866Z,15.60
2018-06-23T08:43:37.386Z,15.70
2018-06-23T08:44:10.754Z,15.70
2018-06-23T08:44:44.132Z,15.80
2018-06-23T08:45:17.669Z,15.80
2018-06-23T08:45:51.244Z,15.80
2018-06-23T08:46:24.751Z,15.90
2018-06-23T08:46:58.260Z,15.90
2018-06-23T08:47:31.907Z,15.90
2018-06-23T08:48:05.538Z,16.00
2018-06-23T08:48:39.037Z,16.00
2018-06-23T08:49:12.767Z,16.10
2018-06-23T08:49:46.273Z,16.10
2018-06-23T08:50:19.744Z,16.10
2018-06-23T08:50:53.102Z,16.20
2018-06-23T08:51:26.616Z,16.20
2018-06-23T08:52:00.032Z,16.30
2018-06-23T08:52:33.371Z,16.30
2018-06-23T08:53:06.908Z,16.40
2018-06-23T08:53:40.995Z,16.50
2018-06-23T08:54:15.117Z,16.50
2018-06-23T08:54:48.639Z,16.60
2018-06-23T08:55:22.004Z,16.60
2018-06-23T08:55:55.572Z,16.60
2018-06-23T08:56:29.000Z,16.70
2018-06-23T08:57:02.406Z,16.70
2018-06-23T08:57:35.761Z,16.70
2018-06-23T08:58:09.129Z,16.70
2018-06-23T08:58:43.562Z,16.80
2018-06-23T08:59:17.077Z,16.70
2018-06-23T08:59:50.447Z,16.80
2018-06-23T09:00:23.801Z,16.80
2018-06-23T09:00:57.199Z,16.80
2018-06-23T09:01:30.629Z,16.80
2018-06-23T09:02:04.184Z,16.80
2018-06-23T09:02:37.637Z,16.90
2018-06-23T09:03:11.192Z,16.90
2018-06-23T09:03:44.657Z,16.90
2018-06-23T09:04:18.258Z,17.00
2018-06-23T09:04:55.743Z,17.00
2018-06-23T09:05:31.907Z,17.00
2018-06-23T09:06:07.779Z,17.00
2018-06-23T09:06:41.255Z,17.00
2018-06-23T09:07:14.622Z,17.00
2018-06-23T09:07:48.025Z,16.90
2018-06-23T09:08:21.787Z,16.90
2018-06-23T09:08:55.258Z,16.90
2018-06-23T09:09:28.766Z,16.90
2018-06-23T09:10:02.137Z,16.90
2018-06-23T09:10:35.508Z,16.90
2018-06-23T09:11:08.996Z,17.00
2018-06-23T09:11:42.417Z,17.00
2018-06-23T09:12:15.844Z,17.00
2018-06-23T09:12:49.307Z,17.00
2018-06-23T09:13:22.823Z,16.90
2018-06-23T09:13:56.335Z,16.90
2018-06-23T09:14:30.772Z,16.90
2018-06-23T09:15:04.485Z,16.90
2018-06-23T09:15:38.252Z,16.90
2018-06-23T09:16:11.675Z,16.80
2018-06-23T09:16:45.307Z,16.80
2018-06-23T09:17:18.833Z,16.90
2018-06-23T09:17:52.183Z,16.80
2018-06-23T09:18:25.520Z,16.90
2018-06-23T09:18:59.105Z,16.80
2018-06-23T09:19:32.540Z,16.80
2018-06-23T09:20:05.888Z,16.80
2018-06-23T09:20:39.454Z,16.80
2018-06-23T09:21:13.024Z,16.80
2018-06-23T09:21:46.420Z,16.80
2018-06-23T09:22:19.760Z,16.80
2018-06-23T09:22:53.479Z,16.70
2018-06-23T09:23:27.390Z,16.80
2018-06-23T09:24:01.152Z,16.80
2018-06-23T09:24:36.327Z,16.80
2018-06-23T09:25:11.147Z,16.80
2018-06-23T09:25:44.961Z,16.80
2018-06-23T09:26:20.238Z,16.80
2018-06-23T09:26:54.163Z,16.80
2018-06-23T09:27:27.695Z,16.80
2018-06-23T09:28:01.201Z,16.80
2018-06-23T09:28:34.835Z,16.80
2018-06-23T09:29:08.649Z,16.80
2018-06-23T09:29:43.051Z,16.80
2018-06-23T09:30:16.533Z,16.90
2018-06-23T09:30:50.212Z,16.90
2018-06-23T09:31:23.600Z,16.90
2018-06-23T09:31:57.047Z,17.00
2018-06-23T09:32:30.486Z,17.00
2018-06-23T09:33:03.870Z,17.10
2018-06-23T09:33:37.664Z,17.10
2018-06-23T09:34:11.127Z,17.10
2018-06-23T09:34:46.274Z,17.20
2018-06-23T09:35:19.859Z,17.30
2018-06-23T09:35:53.737Z,17.40
2018-06-23T09:36:27.905Z,17.50
2018-06-23T09:37:01.680Z,17.60
2018-06-23T09:37:35.582Z,17.70
2018-06-23T09:38:09.178Z,17.80
2018-06-23T09:38:42.832Z,17.90
2018-06-23T09:39:17.169Z,18.00